createdAt,value
2018-07-20T00:04:25.660Z,99.99
2018-07-20T00:14:25.732Z,99.99
2018-07-20T00:24:25.677Z,99.99
2018-07-20T00:34:25.676Z,99.99
2018-07-20T00:44:26.714Z,99.99
2018-07-20T00:54:25.651Z,99.44
2018-07-20T01:04:25.726Z,99.63
2018-07-20T01:14:25.718Z,99.99
2018-07-20T01:24:25.795Z,99.99
2018-07-20T01:34:25.722Z,99.87
2018-07-20T01:44:25.758Z,99.99
2018-07-20T01:54:25.763Z,99.99
2018-07-20T02:04:25.838Z,99.99
2018-07-20T02:14:25.763Z,99.99
2018-07-20T02:24:25.849Z,99.99
2018-07-20T02:34:25.786Z,99.99
2018-07-20T02:44:25.749Z,99.99
2018-07-20T02:54:25.792Z,99.99
2018-07-20T03:04:25.800Z,99.99
2018-07-20T03:14:25.854Z,99.99
2018-07-20T03:24:25.899Z,99.99
2018-07-20T03:34:25.874Z,99.99
2018-07-20T03:44:25.817Z,99.99
2018-07-20T03:54:25.895Z,99.99
2018-07-20T04:04:26.857Z,99.99
2018-07-20T04:14:25.922Z,99.99
2018-07-20T04:24:25.890Z,99.99
2018-07-20T04:34:25.940Z,99.99
2018-07-20T04:44:25.876Z,99.99
2018-07-20T04:54:25.947Z,99.99
2018-07-20T05:04:27.629Z,99.99
2018-07-20T05:14:25.979Z,99.99
2018-07-20T05:24:29.504Z,99.99
2018-07-20T05:34:26.016Z,99.99
2018-07-20T05:44:25.983Z,99.99
2018-07-20T05:54:25.923Z,95.07
2018-07-20T06:04:25.992Z,91.56
2018-07-20T06:14:26.025Z,88
2018-07-20T06:24:26.114Z,81.16
2018-07-20T06:34:26.012Z,69.96
2018-07-20T06:44:25.928Z,64.04
2018-07-20T06:54:26.018Z,56.83
2018-07-20T07:04:25.917Z,50.07
2018-07-20T07:14:25.920Z,45.92
2018-07-20T07:24:25.945Z,43.73
2018-07-20T07:34:26.022Z,39
2018-07-20T07:44:25.973Z,36.57
2018-07-20T07:54:26.131Z,34.95
2018-07-20T08:04:25.935Z,31.19
2018-07-20T08:14:25.942Z,29.48
2018-07-20T08:24:25.980Z,29.41
2018-07-20T08:34:25.946Z,27.87
2018-07-20T08:44:25.942Z,28.35
2018-07-20T08:54:25.977Z,28.14
2018-07-20T09:04:25.957Z,27.16
2018-07-20T09:14:25.978Z,30.36
2018-07-20T09:24:27.049Z,38.1
2018-07-20T09:34:25.977Z,40
2018-07-20T09:44:28.196Z,42.07
2018-07-20T09:54:26.007Z,43.67
2018-07-20T10:04:25.966Z,44.31
2018-07-20T10:14:32.095Z,45.58
2018-07-20T10:24:29.937Z,46.85
2018-07-20T10:34:28.082Z,44.56
2018-07-20T10:44:27.108Z,44.19
2018-07-20T10:54:26.052Z,43.73
2018-07-20T11:04:27.130Z,44.63
2018-07-20T11:14:27.017Z,43.8
2018-07-20T11:24:26.013Z,45.29
2018-07-20T11:34:26.043Z,43.75
2018-07-20T11:44:26.007Z,44.45
2018-07-20T11:54:26.030Z,43.73
2018-07-20T12:04:26.023Z,43.73
2018-07-20T12:14:26.067Z,42.68
2018-07-20T12:24:26.049Z,43.75
2018-07-20T12:34:26.059Z,43.73
2018-07-20T12:44:26.056Z,42.55
2018-07-20T12:54:26.041Z,41.21
2018-07-20T13:04:26.056Z,40.53
2018-07-20T13:14:26.115Z,41.35
2018-07-20T13:24:26.040Z,41.19
2018-07-20T13:34:27.158Z,41.66
2018-07-20T13:44:26.053Z,41.27
2018-07-20T13:54:26.045Z,41.66
2018-07-20T14:04:27.134Z,40.5
2018-07-20T14:14:27.103Z,41.29
2018-07-20T14:24:27.202Z,40.86
2018-07-20T14:34:26.093Z,40.39
2018-07-20T14:44:28.077Z,39.9
2018-07-20T14:54:26.051Z,40.97
2018-07-20T15:04:26.081Z,41.13
2018-07-20T15:14:26.084Z,40.08
2018-07-20T15:24:27.131Z,40
2018-07-20T15:34:27.183Z,39.12
2018-07-20T15:44:29.306Z,40.86
2018-07-20T15:54:27.456Z,42.29
2018-07-20T16:04:27.250Z,42.73
2018-07-20T16:14:26.179Z,43
2018-07-20T16:24:26.114Z,43.59
2018-07-20T16:34:28.929Z,42.34
2018-07-20T16:44:26.195Z,42.73
2018-07-20T16:54:26.122Z,41.56
2018-07-20T17:04:27.230Z,40.31
2018-07-20T17:14:26.243Z,40.33
2018-07-20T17:24:26.205Z,40.92
2018-07-20T17:34:26.187Z,40.7
2018-07-20T17:44:26.147Z,41.46
2018-07-20T17:54:26.260Z,41.15
2018-07-20T18:04:26.273Z,42.59
2018-07-20T18:14:26.260Z,43.93
2018-07-20T18:24:26.227Z,45.57
2018-07-20T18:34:26.141Z,46.13
2018-07-20T18:44:26.188Z,46.88
2018-07-20T18:54:26.161Z,47.93
2018-07-20T19:04:26.243Z,47.78
2018-07-20T19:14:26.226Z,47.66
2018-07-20T19:24:26.289Z,48.13
2018-07-20T19:34:26.215Z,48.76
2018-07-20T19:44:26.343Z,48.76
2018-07-20T19:54:26.220Z,48.54
2018-07-20T20:04:26.357Z,49.29
2018-07-20T20:14:26.340Z,50.84
2018-07-20T20:44:30.913Z,52.36
2018-07-20T21:54:28.257Z,56.35
